createdAt,value
2019-05-20T00:02:04.554Z,101426.16
2019-05-20T00:04:33.920Z,101434.80
2019-05-20T00:07:03.469Z,101434.53
2019-05-20T00:12:47.150Z,101434.98
2019-05-20T00:18:25.875Z,101436.42
2019-05-20T00:23:43.733Z,101434.41
2019-05-20T00:26:52.478Z,101426.91
2019-05-20T00:30:01.702Z,101430.16
2019-05-20T00:32:40.700Z,101433.81
2019-05-20T00:35:02.544Z,101435.15
2019-05-20T00:37:33.451Z,101433.34
2019-05-20T00:40:02.877Z,101426.55
2019-05-20T00:42:32.331Z,101433.94
2019-05-20T00:45:01.856Z,101434.53
2019-05-20T00:47:31.249Z,101433.20
2019-05-20T00:50:00.835Z,101433.55
2019-05-20T00:52:30.849Z,101428.72
2019-05-20T00:55:00.242Z,101425.31
2019-05-20T00:58:09.125Z,101425.20
2019-05-20T01:09:02.087Z,101425.59
2019-05-20T01:11:31.443Z,101430.80
2019-05-20T01:14:00.975Z,101426.17
2019-05-20T01:22:00.658Z,101444.05
2019-05-20T01:24:30.384Z,101434.98
2019-05-20T01:26:59.786Z,101443.56
2019-05-20T01:32:43.218Z,101446.47
2019-05-20T01:35:52.409Z,101450.80
2019-05-20T01:41:49.437Z,101456.73
2019-05-20T01:46:58.181Z,101466.43
2019-05-20T01:49:27.533Z,101459.67
2019-05-20T01:51:57.095Z,101463.87
2019-05-20T01:55:05.808Z,101458.56
2019-05-20T01:57:35.322Z,101456.05
2019-05-20T02:00:44.246Z,101456.55
2019-05-20T02:03:28.775Z,101451.96
2019-05-20T02:06:25.298Z,101449.90
2019-05-20T02:08:54.756Z,101452.34
2019-05-20T02:11:24.160Z,101451.49
2019-05-20T02:16:49.290Z,101453.19
2019-05-20T02:19:18.705Z,101452.45
2019-05-20T02:24:43.709Z,101447.66
2019-05-20T02:30:27.587Z,101441.65
2019-05-20T02:32:57.025Z,101442.52
2019-05-20T02:36:05.811Z,101432.66
2019-05-20T02:41:48.442Z,101431.11
2019-05-20T02:44:29.168Z,101431.00
2019-05-20T02:47:37.997Z,101439.58
2019-05-20T02:53:02.271Z,101434.30
2019-05-20T03:01:36.527Z,101425.36
2019-05-20T03:04:11.981Z,101419.89
2019-05-20T03:07:16.443Z,101422.81
2019-05-20T03:09:45.859Z,101418.34
2019-05-20T03:12:15.445Z,101416.53
2019-05-20T03:15:24.175Z,101417.02
2019-05-20T03:17:53.583Z,101418.97
2019-05-20T03:20:23.043Z,101416.53
2019-05-20T03:23:31.711Z,101413.65
2019-05-20T03:32:03.803Z,101410.03
2019-05-20T03:35:12.444Z,101406.63
2019-05-20T03:43:38.586Z,101411.47
2019-05-20T03:57:55.434Z,101413.13
2019-05-20T04:01:17.456Z,101408.44
2019-05-20T04:03:58.808Z,101407.44
2019-05-20T04:06:28.309Z,101417.49
2019-05-20T04:08:57.920Z,101408.92
2019-05-20T04:11:27.367Z,101410.36
2019-05-20T04:17:11.189Z,101408.95
2019-05-20T04:19:40.690Z,101406.39
2019-05-20T04:22:10.051Z,101402.91
2019-05-20T04:28:13.955Z,101410.05
2019-05-20T04:33:38.338Z,101401.68
2019-05-20T04:36:07.746Z,101403.63
2019-05-20T04:38:37.085Z,101400.00
2019-05-20T04:41:45.765Z,101402.77
2019-05-20T04:50:28.470Z,101402.50
2019-05-20T04:52:57.975Z,101405.05
2019-05-20T04:55:27.460Z,101408.94
2019-05-20T04:57:57.160Z,101407.11
2019-05-20T05:01:04.833Z,101405.80
2019-05-20T05:03:36.577Z,101410.86
2019-05-20T05:06:17.658Z,101411.34
2019-05-20T05:09:26.386Z,101417.28
2019-05-20T05:11:55.896Z,101418.00
2019-05-20T05:20:18.504Z,101428.47
2019-05-20T05:22:46.897Z,101421.59
2019-05-20T05:28:11.375Z,101418.91
2019-05-20T05:33:55.132Z,101422.29
2019-05-20T05:36:24.527Z,101422.92
2019-05-20T05:38:53.988Z,101420.02
2019-05-20T05:41:23.534Z,101423.53
2019-05-20T05:47:02.269Z,101420.27
2019-05-20T05:52:22.899Z,101415.18
2019-05-20T06:04:06.803Z,101419.91
2019-05-20T06:09:16.942Z,101409.23
2019-05-20T06:12:25.603Z,101415.27
2019-05-20T06:18:09.038Z,101394.72
2019-05-20T06:23:39.888Z,101412.78
2019-05-20T06:26:09.359Z,101408.67
2019-05-20T06:28:38.668Z,101408.30
2019-05-20T06:43:12.408Z,101398.10
2019-05-20T06:45:41.997Z,101394.33
2019-05-20T06:48:50.720Z,101405.14
2019-05-20T06:51:20.263Z,101395.94
2019-05-20T06:53:49.749Z,101396.53
2019-05-20T06:56:19.383Z,101391.14
2019-05-20T06:58:49.048Z,101395.25
2019-05-20T07:01:18.467Z,101389.06
2019-05-20T07:03:47.885Z,101386.34
2019-05-20T07:09:31.747Z,101380.36
2019-05-20T07:12:01.407Z,101379.72
2019-05-20T07:14:31.001Z,101372.58
2019-05-20T07:17:39.791Z,101381.41
2019-05-20T07:23:10.737Z,101372.13
2019-05-20T07:25:40.238Z,101371.37
2019-05-20T07:28:10.310Z,101364.88
2019-05-20T07:31:00.584Z,101374.37
2019-05-20T07:33:29.991Z,101282.64
2019-05-20T07:36:38.681Z,101373.11
2019-05-20T07:42:42.630Z,101373.69
2019-05-20T07:45:32.631Z,101368.27
2019-05-20T07:48:41.461Z,101370.22
2019-05-20T08:06:42.124Z,101357.00
2019-05-20T08:09:11.664Z,101358.94
2019-05-20T08:11:41.145Z,101361.80
2019-05-20T08:14:49.953Z,101362.19
2019-05-20T08:21:07.377Z,101358.66
2019-05-20T08:23:37.117Z,101353.27
2019-05-20T08:29:02.123Z,101364.01
2019-05-20T08:31:31.628Z,101356.31
2019-05-20T08:34:40.610Z,101360.73
2019-05-20T08:37:11.613Z,101356.77
2019-05-20T08:39:41.121Z,101359.40
2019-05-20T08:42:10.637Z,101356.03
2019-05-20T08:44:40.024Z,101361.03
2019-05-20T08:53:07.150Z,101360.31
2019-05-20T08:55:56.318Z,101356.31
2019-05-20T08:58:25.907Z,101358.67
2019-05-20T09:00:55.654Z,101353.77
2019-05-20T09:06:07.225Z,101360.58
2019-05-20T09:08:37.031Z,101352.09
2019-05-20T09:11:06.442Z,101357.33
2019-05-20T09:13:36.008Z,101344.03
2019-05-20T09:16:45.105Z,101349.77
2019-05-20T09:22:24.038Z,101343.57
2019-05-20T09:31:03.925Z,101336.62
2019-05-20T09:36:42.175Z,101330.41
2019-05-20T09:39:11.581Z,101331.81
2019-05-20T09:41:41.013Z,101328.58
2019-05-20T09:44:10.571Z,101330.20
2019-05-20T09:49:55.306Z,101328.28
2019-05-20T09:53:06.919Z,101328.53
2019-05-20T09:58:30.832Z,101326.64
2019-05-20T10:01:40.452Z,101321.82
2019-05-20T10:04:50.064Z,101318.28
2019-05-20T10:07:19.466Z,101322.84
2019-05-20T10:09:49.282Z,101321.61
2019-05-20T10:12:58.097Z,101317.86
2019-05-20T10:15:27.724Z,101316.02
2019-05-20T10:18:38.516Z,101320.50
2019-05-20T10:24:08.946Z,101309.47
2019-05-20T10:26:38.422Z,101307.53
2019-05-20T10:29:09.883Z,101310.36
2019-05-20T10:32:18.922Z,101305.73
2019-05-20T10:35:07.413Z,101306.47
2019-05-20T10:37:36.856Z,101299.73
2019-05-20T10:43:20.553Z,101299.64
2019-05-20T10:45:50.041Z,101306.91
2019-05-20T10:48:58.719Z,101303.62
2019-05-20T10:51:58.481Z,101301.35
2019-05-20T10:54:27.902Z,101296.57
2019-05-20T10:56:59.694Z,101308.34
2019-05-20T10:59:28.542Z,101299.80
2019-05-20T11:04:53.633Z,101300.60
2019-05-20T11:07:23.100Z,101305.05
2019-05-20T11:10:31.792Z,101308.08
2019-05-20T11:13:01.544Z,101301.22
2019-05-20T11:15:53.493Z,101305.64
2019-05-20T11:21:18.160Z,101302.56
2019-05-20T11:23:47.707Z,101305.44
2019-05-20T11:26:56.451Z,101305.76
2019-05-20T11:35:41.359Z,101299.29
2019-05-20T11:38:10.843Z,101289.65
2019-05-20T11:40:40.359Z,101294.23
2019-05-20T11:43:09.928Z,101294.30
2019-05-20T11:45:39.426Z,101301.56
2019-05-20T11:48:11.417Z,101298.45
2019-05-20T11:51:20.060Z,101302.52
2019-05-20T11:56:50.963Z,101294.23
2019-05-20T11:59:59.687Z,101293.52
2019-05-20T12:03:08.384Z,101295.17
2019-05-20T12:08:52.405Z,101286.27
2019-05-20T12:12:01.068Z,101285.52
2019-05-20T12:14:30.746Z,101283.61
2019-05-20T12:17:00.190Z,101284.34
2019-05-20T12:19:29.644Z,101283.76
2019-05-20T12:21:59.063Z,101285.61
2019-05-20T12:24:28.571Z,101281.55
2019-05-20T12:26:58.423Z,101278.95
2019-05-20T12:29:28.267Z,101278.92
2019-05-20T12:31:57.740Z,101281.64
2019-05-20T12:35:06.430Z,101278.38
2019-05-20T12:37:35.986Z,101269.01
2019-05-20T12:40:45.112Z,101253.69
2019-05-20T12:46:26.525Z,101256.78
2019-05-20T12:52:10.695Z,101259.27
2019-05-20T12:54:41.899Z,101259.03
2019-05-20T12:57:11.440Z,101260.33
2019-05-20T12:59:41.120Z,101254.56
2019-05-20T13:02:49.905Z,101249.31
2019-05-20T13:05:58.658Z,101245.70
2019-05-20T13:08:28.073Z,101256.22
2019-05-20T13:10:57.478Z,101253.02
2019-05-20T13:14:06.213Z,101249.10
2019-05-20T13:22:56.188Z,101250.37
2019-05-20T13:25:25.745Z,101252.17
2019-05-20T13:27:55.349Z,101251.98
2019-05-20T13:30:24.956Z,101255.17
2019-05-20T13:36:08.868Z,101257.48
2019-05-20T13:38:38.239Z,101262.09
2019-05-20T13:41:07.941Z,101259.61
2019-05-20T13:44:16.691Z,101260.98
2019-05-20T13:46:46.250Z,101255.45
2019-05-20T13:49:55.004Z,101251.69
2019-05-20T13:55:39.084Z,101257.25
2019-05-20T13:58:08.545Z,101253.86
2019-05-20T14:00:57.038Z,101247.48
2019-05-20T14:12:30.486Z,101242.47
2019-05-20T14:15:00.021Z,101171.39
2019-05-20T14:17:29.815Z,101257.87
2019-05-20T14:20:01.085Z,101262.89
2019-05-20T14:23:09.756Z,101248.03
2019-05-20T14:26:18.563Z,101247.80
2019-05-20T14:31:41.308Z,101249.19
2019-05-20T14:37:38.715Z,101240.41
2019-05-20T14:43:22.661Z,101241.22
2019-05-20T14:45:54.028Z,101242.12
2019-05-20T14:48:23.697Z,101241.28
2019-05-20T14:50:53.174Z,101258.70
2019-05-20T14:56:37.529Z,101258.96
2019-05-20T14:59:06.895Z,101267.08
2019-05-20T15:01:36.524Z,101285.72
2019-05-20T15:04:06.524Z,101286.27
2019-05-20T15:06:36.060Z,101279.91
2019-05-20T15:09:44.822Z,101286.16
2019-05-20T15:15:23.198Z,101298.38
2019-05-20T15:17:52.547Z,101301.63
2019-05-20T15:20:22.207Z,101298.78
2019-05-20T15:22:51.613Z,101294.57
2019-05-20T15:25:21.020Z,101291.16
2019-05-20T15:27:50.568Z,101289.85
2019-05-20T15:30:59.223Z,101292.70
2019-05-20T15:36:30.830Z,101309.68
2019-05-20T15:42:08.969Z,101317.59
2019-05-20T15:51:00.105Z,101316.97
2019-05-20T15:53:29.694Z,101317.95
2019-05-20T15:59:13.869Z,101320.42
2019-05-20T16:01:43.308Z,101316.67
2019-05-20T16:04:12.763Z,101317.63
2019-05-20T16:09:49.013Z,101322.69
2019-05-20T16:12:18.486Z,101330.67
2019-05-20T16:14:51.308Z,101324.38
2019-05-20T16:17:19.184Z,101324.38
2019-05-20T16:19:48.869Z,101328.27
2019-05-20T16:22:18.417Z,101325.28
2019-05-20T16:27:43.680Z,101322.42
2019-05-20T16:30:52.316Z,101329.68
2019-05-20T16:36:17.556Z,101344.55
2019-05-20T16:38:47.002Z,101350.62
2019-05-20T16:41:16.729Z,101336.83
2019-05-20T16:44:25.462Z,101339.62
2019-05-20T16:46:55.008Z,101348.08
2019-05-20T16:49:24.695Z,101341.30
2019-05-20T16:51:54.344Z,101346.40
2019-05-20T16:57:38.315Z,101349.66
2019-05-20T17:00:46.959Z,101344.08
2019-05-20T17:03:16.632Z,101343.59
2019-05-20T17:05:46.061Z,101345.77
2019-05-20T17:08:15.411Z,101349.42
2019-05-20T17:10:44.837Z,101353.02
2019-05-20T17:13:14.308Z,101356.56
2019-05-20T17:15:43.740Z,101358.44
2019-05-20T17:21:08.274Z,101362.37
2019-05-20T17:23:37.674Z,101353.64
2019-05-20T17:26:07.128Z,101353.41
2019-05-20T17:28:36.827Z,101348.69
2019-05-20T17:31:06.310Z,101361.12
2019-05-20T17:33:55.056Z,101358.81
2019-05-20T17:36:25.191Z,101357.37
2019-05-20T17:38:54.592Z,101363.55
2019-05-20T17:41:24.096Z,101364.03
2019-05-20T17:52:19.749Z,101367.91
2019-05-20T17:54:49.166Z,101372.48
2019-05-20T17:57:18.623Z,101373.34
2019-05-20T17:59:48.090Z,101388.92
2019-05-20T18:02:18.872Z,101379.94
2019-05-20T18:05:00.549Z,101378.38
2019-05-20T18:10:43.977Z,101292.93
2019-05-20T18:13:14.503Z,101393.41
2019-05-20T18:15:43.924Z,101396.64
2019-05-20T18:18:52.847Z,101387.93
2019-05-20T18:21:22.450Z,101395.59
2019-05-20T18:23:51.950Z,101392.87
2019-05-20T18:26:21.474Z,101390.83
2019-05-20T18:28:50.861Z,101391.69
2019-05-20T18:31:32.000Z,101390.08
2019-05-20T18:34:30.763Z,101398.14
2019-05-20T18:40:13.197Z,101398.52
2019-05-20T18:51:37.107Z,101400.50
2019-05-20T18:54:06.799Z,101398.66
2019-05-20T18:57:15.541Z,101406.00
2019-05-20T19:05:40.165Z,101408.62
2019-05-20T19:08:48.895Z,101408.05
2019-05-20T19:11:57.709Z,101411.88
2019-05-20T19:14:27.155Z,101412.28
2019-05-20T19:16:56.573Z,101414.33
2019-05-20T19:19:26.584Z,101411.44
2019-05-20T19:22:35.230Z,101414.94
2019-05-20T19:25:44.140Z,101423.17
2019-05-20T19:31:28.503Z,101425.45
2019-05-20T19:34:37.178Z,101416.55
2019-05-20T19:37:46.050Z,101421.02
2019-05-20T19:40:15.570Z,101414.62
2019-05-20T19:42:45.426Z,101423.23
2019-05-20T19:45:54.475Z,101420.59
2019-05-20T19:48:24.047Z,101424.98
2019-05-20T19:50:53.569Z,101424.83
2019-05-20T19:53:23.345Z,101424.98
2019-05-20T19:55:52.885Z,101430.25
2019-05-20T19:58:22.265Z,101434.52
2019-05-20T20:03:46.780Z,101434.95
2019-05-20T20:06:16.289Z,101433.91
2019-05-20T20:11:41.604Z,101432.77
2019-05-20T20:14:11.043Z,101437.50
2019-05-20T20:16:41.046Z,101427.27
2019-05-20T20:19:10.806Z,101431.02
2019-05-20T20:21:59.306Z,101430.83
2019-05-20T20:24:39.467Z,101434.70
2019-05-20T20:27:08.996Z,101427.84
2019-05-20T20:30:17.773Z,101429.92
2019-05-20T20:32:47.503Z,101426.89
2019-05-20T20:35:56.186Z,101423.44
2019-05-20T20:38:26.193Z,101424.44
2019-05-20T20:40:55.899Z,101423.09
2019-05-20T20:43:25.560Z,101421.69
2019-05-20T20:45:55.071Z,101426.09
2019-05-20T20:48:24.675Z,101421.06
2019-05-20T20:50:54.095Z,101430.87
2019-05-20T20:54:02.787Z,101430.97
2019-05-20T20:56:34.320Z,101437.60
2019-05-20T20:59:22.493Z,101441.81
2019-05-20T21:01:55.343Z,101445.36
2019-05-20T21:04:23.100Z,101446.36
2019-05-20T21:07:32.146Z,101450.14
2019-05-20T21:13:28.138Z,101450.09
2019-05-20T21:16:16.370Z,101451.66
2019-05-20T21:21:46.688Z,101439.30
2019-05-20T21:24:16.080Z,101438.95
2019-05-20T21:26:45.648Z,101430.08
2019-05-20T21:29:15.231Z,101438.89
2019-05-20T21:31:44.676Z,101438.42
2019-05-20T21:34:53.371Z,101440.46
2019-05-20T21:37:22.791Z,101438.70
2019-05-20T21:39:52.185Z,101432.17
2019-05-20T21:42:21.615Z,101434.49
2019-05-20T21:50:47.817Z,101438.09
2019-05-20T21:53:17.191Z,101437.00
2019-05-20T21:55:46.788Z,101435.47
2019-05-20T21:58:16.318Z,101431.08
2019-05-20T22:01:25.100Z,101441.75
2019-05-20T22:04:15.009Z,101437.83
2019-05-20T22:09:36.730Z,101437.73
2019-05-20T22:12:06.364Z,101437.25
2019-05-20T22:14:35.978Z,101353.89
2019-05-20T22:17:05.593Z,101439.10
2019-05-20T22:19:35.090Z,101438.83
2019-05-20T22:24:59.979Z,101445.83
2019-05-20T22:27:36.790Z,101447.05
2019-05-20T22:30:45.996Z,101443.87
2019-05-20T22:33:15.545Z,101444.28
2019-05-20T22:38:41.110Z,101449.49
2019-05-20T22:41:10.692Z,101445.20
2019-05-20T22:43:40.335Z,101448.74
2019-05-20T22:46:09.827Z,101443.87
2019-05-20T22:48:39.327Z,101454.67
2019-05-20T22:51:08.812Z,101442.29
2019-05-20T22:53:38.215Z,101444.60
2019-05-20T22:56:07.739Z,101447.42
2019-05-20T22:59:16.478Z,101459.17
2019-05-20T23:01:46.180Z,101456.17
2019-05-20T23:04:26.310Z,101406.03
2019-05-20T23:06:55.814Z,101461.72
2019-05-20T23:09:25.236Z,101459.06
2019-05-20T23:11:54.621Z,101454.81
2019-05-20T23:17:32.747Z,101465.60
2019-05-20T23:20:02.244Z,101466.76
2019-05-20T23:28:35.921Z,101460.53
2019-05-20T23:31:05.901Z,101462.88
2019-05-20T23:33:35.476Z,101457.27
2019-05-20T23:36:44.186Z,101461.39
2019-05-20T23:39:13.885Z,101462.41
2019-05-20T23:42:22.601Z,101461.80
2019-05-20T23:48:00.841Z,101459.48
2019-05-20T23:50:30.509Z,101458.05
2019-05-20T23:53:39.614Z,101456.01
2019-05-20T23:59:00.294Z,101463.13
